aviador You're here:

KCEW Decoded Metar

CRESTVIEW in FL, USA
Report Time2018-01-21 05:53:00
UTC Time2018-01-21 06:43:20
Flight Rules vfr VFR
WindCalm
Visibility9999 m
Phenomena:N/A
Clouds:N/A
Expected CloudBase > 400 ft AGL from Temp-Dew spread
CeilingNone
Temp04°C (ISA -11)
Dew Point03°C (93% RH)
AAT2.5°C
QNH1024 hPa
Density Alt-1,378 ft
Elevation180 ft
Report Wrong Elevation
Raw Report
KCEW 210553Z AUTO 00000KT 10SM CLR 04/03 A3025 RMK AO2 SLP243
T00390028 10139 20039 402001017 58013 $=

Extra information for KCEW:More info

Metar Taf Metar & Taf Last 4 Metars F.Rules Stats Wind Profile Meteogram Temp Stats Airport Information Weather charts Add Link Nearby VenuesMetar ALERT Operation Metar Decoded Social comments

AIRNAV info for KCEW